sensor_id;sensor_type;location;lat;lon;timestamp;pressure;altitude;pressure_sealevel;temperature;humidity
31121;BME280;17770;45.966;13.632;2022-09-24T00:01:16;100772.22;;;22.01;45.37
31121;BME280;17770;45.966;13.632;2022-09-24T00:03:43;100768.75;;;22.00;45.33
31121;BME280;17770;45.966;13.632;2022-09-24T00:06:12;100767.19;;;21.98;45.69
31121;BME280;17770;45.966;13.632;2022-09-24T00:08:44;100774.09;;;21.98;45.62
31121;BME280;17770;45.966;13.632;2022-09-24T00:11:10;100765.28;;;22.00;45.74
31121;BME280;17770;45.966;13.632;2022-09-24T00:13:37;100765.28;;;22.00;45.27
31121;BME280;17770;45.966;13.632;2022-09-24T00:16:04;100761.81;;;21.99;45.77
31121;BME280;17770;45.966;13.632;2022-09-24T00:18:32;100761.94;;;21.98;45.55
31121;BME280;17770;45.966;13.632;2022-09-24T00:20:57;100762.78;;;21.98;45.47
31121;BME280;17770;45.966;13.632;2022-09-24T00:23:23;100763.81;;;21.95;45.71
31121;BME280;17770;45.966;13.632;2022-09-24T00:25:49;100755.81;;;21.97;46.12
31121;BME280;17770;45.966;13.632;2022-09-24T00:28:33;100755.72;;;21.98;45.83
31121;BME280;17770;45.966;13.632;2022-09-24T00:31:03;100753.09;;;21.98;46.04
31121;BME280;17770;45.966;13.632;2022-09-24T00:33:32;100757.41;;;22.00;45.80
31121;BME280;17770;45.966;13.632;2022-09-24T00:35:59;100760.03;;;22.00;45.84
31121;BME280;17770;45.966;13.632;2022-09-24T00:38:27;100757.53;;;21.98;46.02
31121;BME280;17770;45.966;13.632;2022-09-24T00:40:53;100756.69;;;21.98;46.17
31121;BME280;17770;45.966;13.632;2022-09-24T00:43:26;100751.53;;;21.96;45.96
31121;BME280;17770;45.966;13.632;2022-09-24T00:46:27;100754.06;;;21.98;45.70
31121;BME280;17770;45.966;13.632;2022-09-24T00:48:45;100748.91;;;21.96;46.03
31121;BME280;17770;45.966;13.632;2022-09-24T00:51:12;100742.81;;;21.95;46.15
31121;BME280;17770;45.966;13.632;2022-09-24T00:53:40;100736.59;;;21.96;46.07
31121;BME280;17770;45.966;13.632;2022-09-24T00:56:08;100738.50;;;21.94;45.93
31121;BME280;17770;45.966;13.632;2022-09-24T00:58:35;100738.63;;;21.93;46.06
31121;BME280;17770;45.966;13.632;2022-09-24T01:01:04;100736.81;;;21.93;45.84
31121;BME280;17770;45.966;13.632;2022-09-24T01:03:32;100727.38;;;21.91;46.11
31121;BME280;17770;45.966;13.632;2022-09-24T01:06:00;100731.66;;;21.92;45.90
31121;BME280;17770;45.966;13.632;2022-09-24T01:08:26;100725.69;;;21.90;46.54
31121;BME280;17770;45.966;13.632;2022-09-24T01:13:49;100722.13;;;21.91;45.61
31121;BME280;17770;45.966;13.632;2022-09-24T01:23:59;100719.72;;;21.88;45.87
31121;BME280;17770;45.966;13.632;2022-09-24T01:31:58;100714.75;;;21.83;45.95
31121;BME280;17770;45.966;13.632;2022-09-24T01:34:28;100712.13;;;21.83;45.67
31121;BME280;17770;45.966;13.632;2022-09-24T01:36:55;100716.34;;;21.86;46.08
31121;BME280;17770;45.966;13.632;2022-09-24T01:39:22;100706.88;;;21.83;46.06
31121;BME280;17770;45.966;13.632;2022-09-24T01:41:49;100713.84;;;21.84;46.31
31121;BME280;17770;45.966;13.632;2022-09-24T01:44:15;100709.63;;;21.82;45.75
31121;BME280;17770;45.966;13.632;2022-09-24T01:46:43;100710.59;;;21.81;45.96
31121;BME280;17770;45.966;13.632;2022-09-24T01:49:09;100705.22;;;21.82;45.76
31121;BME280;17770;45.966;13.632;2022-09-24T01:51:42;100710.59;;;21.81;46.01
31121;BME280;17770;45.966;13.632;2022-09-24T01:54:17;100712.34;;;21.80;45.82
31121;BME280;17770;45.966;13.632;2022-09-24T01:56:56;100711.44;;;21.81;45.76
31121;BME280;17770;45.966;13.632;2022-09-24T01:59:29;100708.06;;;21.79;45.75
31121;BME280;17770;45.966;13.632;2022-09-24T02:02:01;100696.72;;;21.79;45.96
31121;BME280;17770;45.966;13.632;2022-09-24T02:04:29;100698.50;;;21.78;46.11
31121;BME280;17770;45.966;13.632;2022-09-24T02:07:01;100701.13;;;21.78;45.92
31121;BME280;17770;45.966;13.632;2022-09-24T02:09:32;100696.72;;;21.79;45.88
31121;BME280;17770;45.966;13.632;2022-09-24T02:12:00;100689.91;;;21.76;46.15
31121;BME280;17770;45.966;13.632;2022-09-24T02:14:28;100685.47;;;21.77;46.07
31121;BME280;17770;45.966;13.632;2022-09-24T02:16:56;100680.41;;;21.74;45.81
31121;BME280;17770;45.966;13.632;2022-09-24T02:19:25;100688.19;;;21.75;46.12
31121;BME280;17770;45.966;13.632;2022-09-24T02:21:52;100675.91;;;21.76;46.41
31121;BME280;17770;45.966;13.632;2022-09-24T02:24:21;100682.91;;;21.75;45.93
31121;BME280;17770;45.966;13.632;2022-09-24T02:26:49;100670.75;;;21.74;46.22
31121;BME280;17770;45.966;13.632;2022-09-24T02:29:15;100672.41;;;21.75;46.18
31121;BME280;17770;45.966;13.632;2022-09-24T02:31:44;100668.13;;;21.74;46.16
31121;BME280;17770;45.966;13.632;2022-09-24T02:34:12;100670.88;;;21.73;46.40
31121;BME280;17770;45.966;13.632;2022-09-24T02:36:49;100667.38;;;21.72;46.42
31121;BME280;17770;45.966;13.632;2022-09-24T02:39:16;100666.44;;;21.73;46.07
31121;BME280;17770;45.966;13.632;2022-09-24T02:41:43;100663.00;;;21.73;46.13
31121;BME280;17770;45.966;13.632;2022-09-24T02:44:15;100658.56;;;21.73;46.22
31121;BME280;17770;45.966;13.632;2022-09-24T02:46:41;100663.00;;;21.73;46.16
31121;BME280;17770;45.966;13.632;2022-09-24T02:49:08;100656.88;;;21.72;46.38
31121;BME280;17770;45.966;13.632;2022-09-24T02:51:34;100657.84;;;21.71;46.19
31121;BME280;17770;45.966;13.632;2022-09-24T02:54:01;100653.53;;;21.70;46.06
31121;BME280;17770;45.966;13.632;2022-09-24T02:56:27;100656.88;;;21.72;46.23
31121;BME280;17770;45.966;13.632;2022-09-24T02:58:53;100658.66;;;21.72;46.26
31121;BME280;17770;45.966;13.632;2022-09-24T03:01:19;100654.38;;;21.71;46.21
31121;BME280;17770;45.966;13.632;2022-09-24T03:03:45;100657.00;;;21.71;46.04
31121;BME280;17770;45.966;13.632;2022-09-24T03:06:11;100648.38;;;21.69;46.36
31121;BME280;17770;45.966;13.632;2022-09-24T03:08:38;100651.84;;;21.69;46.28
31121;BME280;17770;45.966;13.632;2022-09-24T03:11:04;100643.13;;;21.69;46.31
31121;BME280;17770;45.966;13.632;2022-09-24T03:13:30;100630.84;;;21.69;46.39
31121;BME280;17770;45.966;13.632;2022-09-24T03:15:55;100639.78;;;21.67;46.06
31121;BME280;17770;45.966;13.632;2022-09-24T03:18:21;100637.16;;;21.67;46.41
31121;BME280;17770;45.966;13.632;2022-09-24T03:20:54;100637.16;;;21.67;46.29
31121;BME280;17770;45.966;13.632;2022-09-24T03:23:20;100631.06;;;21.66;46.25
31121;BME280;17770;45.966;13.632;2022-09-24T03:25:46;100632.13;;;21.64;46.46
31121;BME280;17770;45.966;13.632;2022-09-24T03:28:12;100623.31;;;21.65;46.23
31121;BME280;17770;45.966;13.632;2022-09-24T03:30:38;100628.56;;;21.65;46.17
31121;BME280;17770;45.966;13.632;2022-09-24T03:33:22;100627.81;;;21.63;46.24
31121;BME280;17770;45.966;13.632;2022-09-24T03:35:48;100623.44;;;21.63;46.25
31121;BME280;17770;45.966;13.632;2022-09-24T03:38:14;100622.47;;;21.64;46.22
31121;BME280;17770;45.966;13.632;2022-09-24T03:40:39;100621.72;;;21.62;45.82
31121;BME280;17770;45.966;13.632;2022-09-24T03:43:05;100616.47;;;21.62;46.56
31121;BME280;17770;45.966;13.632;2022-09-24T03:45:31;100612.19;;;21.61;45.89
31121;BME280;17770;45.966;13.632;2022-09-24T03:47:57;100614.06;;;21.59;46.34
31121;BME280;17770;45.966;13.632;2022-09-24T03:50:23;100612.19;;;21.61;46.26
31121;BME280;17770;45.966;13.632;2022-09-24T03:52:49;100615.75;;;21.60;46.15
31121;BME280;17770;45.966;13.632;2022-09-24T03:55:14;100615.75;;;21.60;46.15
31121;BME280;17770;45.966;13.632;2022-09-24T03:57:40;100618.47;;;21.59;46.20
31121;BME280;17770;45.966;13.632;2022-09-24T04:00:06;100616.81;;;21.58;46.20
31121;BME280;17770;45.966;13.632;2022-09-24T04:02:33;100619.22;;;21.61;46.29
31121;BME280;17770;45.966;13.632;2022-09-24T04:04:59;100626.34;;;21.59;45.95
31121;BME280;17770;45.966;13.632;2022-09-24T04:07:25;100622.06;;;21.58;46.58
31121;BME280;17770;45.966;13.632;2022-09-24T04:09:51;100621.94;;;21.59;46.49
31121;BME280;17770;45.966;13.632;2022-09-24T04:12:17;100622.06;;;21.58;46.35
31121;BME280;17770;45.966;13.632;2022-09-24T04:14:43;100636.84;;;21.59;46.26
31121;BME280;17770;45.966;13.632;2022-09-24T04:17:09;100641.28;;;21.58;46.33
31121;BME280;17770;45.966;13.632;2022-09-24T04:19:35;100645.69;;;21.58;46.38
31121;BME280;17770;45.966;13.632;2022-09-24T04:22:00;100640.53;;;21.56;46.10
31121;BME280;17770;45.966;13.632;2022-09-24T04:24:26;100650.19;;;21.56;46.81
31121;BME280;17770;45.966;13.632;2022-09-24T04:26:52;100658.91;;;21.56;46.08
31121;BME280;17770;45.966;13.632;2022-09-24T04:29:18;100661.53;;;21.56;45.87
31121;BME280;17770;45.966;13.632;2022-09-24T04:31:44;100653.66;;;21.56;46.23
31121;BME280;17770;45.966;13.632;2022-09-24T04:34:10;100651.16;;;21.55;45.95
31121;BME280;17770;45.966;13.632;2022-09-24T04:36:36;100653.78;;;21.55;46.29
31121;BME280;17770;45.966;13.632;2022-09-24T04:39:02;100649.34;;;21.55;46.59
31121;BME280;17770;45.966;13.632;2022-09-24T04:41:28;100647.78;;;21.53;46.06
31121;BME280;17770;45.966;13.632;2022-09-24T04:43:55;100634.66;;;21.53;46.42
31121;BME280;17770;45.966;13.632;2022-09-24T04:46:21;100634.78;;;21.51;45.98
31121;BME280;17770;45.966;13.632;2022-09-24T04:48:47;100633.81;;;21.52;46.40
31121;BME280;17770;45.966;13.632;2022-09-24T04:51:13;100631.19;;;21.52;46.25
31121;BME280;17770;45.966;13.632;2022-09-24T04:53:40;100627.63;;;21.53;46.14
31121;BME280;17770;45.966;13.632;2022-09-24T04:56:06;100636.44;;;21.52;46.47
31121;BME280;17770;45.966;13.632;2022-09-24T04:58:37;100640.03;;;21.51;46.41
31121;BME280;17770;45.966;13.632;2022-09-24T05:01:03;100630.34;;;21.52;46.35
31121;BME280;17770;45.966;13.632;2022-09-24T05:03:29;100626.06;;;21.51;46.22
31121;BME280;17770;45.966;13.632;2022-09-24T05:05:54;100629.53;;;21.51;46.53
31121;BME280;17770;45.966;13.632;2022-09-24T05:08:21;100628.69;;;21.51;46.45
31121;BME280;17770;45.966;13.632;2022-09-24T05:10:47;100637.50;;;21.50;46.43
31121;BME280;17770;45.966;13.632;2022-09-24T05:13:13;100642.75;;;21.50;46.45
31121;BME280;17770;45.966;13.632;2022-09-24T05:15:39;100644.53;;;21.49;46.29
31121;BME280;17770;45.966;13.632;2022-09-24T05:18:05;100634.03;;;21.49;46.40
31121;BME280;17770;45.966;13.632;2022-09-24T05:20:31;100636.66;;;21.49;46.34
31121;BME280;17770;45.966;13.632;2022-09-24T05:22:57;100634.03;;;21.49;46.27
31121;BME280;17770;45.966;13.632;2022-09-24T05:25:23;100640.13;;;21.50;45.94
31121;BME280;17770;45.966;13.632;2022-09-24T05:27:49;100641.91;;;21.49;46.15
31121;BME280;17770;45.966;13.632;2022-09-24T05:30:16;100642.88;;;21.48;46.28
31121;BME280;17770;45.966;13.632;2022-09-24T05:32:42;100645.50;;;21.48;46.57
31121;BME280;17770;45.966;13.632;2022-09-24T05:35:08;100645.50;;;21.48;46.34
31121;BME280;17770;45.966;13.632;2022-09-24T05:37:34;100639.41;;;21.48;46.14
31121;BME280;17770;45.966;13.632;2022-09-24T05:40:01;100637.81;;;21.45;46.30
31121;BME280;17770;45.966;13.632;2022-09-24T05:42:47;100639.50;;;21.46;46.29
31121;BME280;17770;45.966;13.632;2022-09-24T05:45:13;100640.44;;;21.45;46.25
31121;BME280;17770;45.966;13.632;2022-09-24T05:47:44;100636.03;;;21.46;46.21
31121;BME280;17770;45.966;13.632;2022-09-24T05:50:11;100637.00;;;21.45;46.59
31121;BME280;17770;45.966;13.632;2022-09-24T05:52:38;100641.41;;;21.44;46.35
31121;BME280;17770;45.966;13.632;2022-09-24T05:55:04;100644.88;;;21.45;46.43
31121;BME280;17770;45.966;13.632;2022-09-24T05:57:30;100636.16;;;21.44;46.75
31121;BME280;17770;45.966;13.632;2022-09-24T05:59:55;100638.66;;;21.46;46.48
31121;BME280;17770;45.966;13.632;2022-09-24T06:02:21;100644.75;;;21.46;46.87
31121;BME280;17770;45.966;13.632;2022-09-24T06:04:47;100636.78;;;21.48;46.59
31121;BME280;17770;45.966;13.632;2022-09-24T06:07:13;100652.53;;;21.48;46.25
31121;BME280;17770;45.966;13.632;2022-09-24T06:09:39;100650.00;;;21.46;46.59
31121;BME280;17770;45.966;13.632;2022-09-24T06:12:06;100653.47;;;21.47;46.60
31121;BME280;17770;45.966;13.632;2022-09-24T06:14:32;100664.06;;;21.45;46.72
31121;BME280;17770;45.966;13.632;2022-09-24T06:16:57;100663.13;;;21.46;46.85
31121;BME280;17770;45.966;13.632;2022-09-24T06:19:23;100657.88;;;21.46;46.60
31121;BME280;17770;45.966;13.632;2022-09-24T06:21:49;100663.25;;;21.45;46.13
31121;BME280;17770;45.966;13.632;2022-09-24T06:24:15;100664.16;;;21.44;46.53
31121;BME280;17770;45.966;13.632;2022-09-24T06:26:41;100660.72;;;21.43;46.50
31121;BME280;17770;45.966;13.632;2022-09-24T06:29:06;100657.13;;;21.44;46.44
31121;BME280;17770;45.966;13.632;2022-09-24T06:31:32;100663.34;;;21.43;46.48
31121;BME280;17770;45.966;13.632;2022-09-24T06:33:59;100667.75;;;21.43;46.24
31121;BME280;17770;45.966;13.632;2022-09-24T06:36:27;100660.72;;;21.43;46.69
31121;BME280;17770;45.966;13.632;2022-09-24T06:38:53;100661.66;;;21.42;46.61
31121;BME280;17770;45.966;13.632;2022-09-24T06:41:19;100660.84;;;21.42;46.56
31121;BME280;17770;45.966;13.632;2022-09-24T06:43:45;100665.22;;;21.41;46.74
31121;BME280;17770;45.966;13.632;2022-09-24T06:46:11;100666.09;;;21.42;46.62
31121;BME280;17770;45.966;13.632;2022-09-24T06:48:40;100662.59;;;21.41;46.56
31121;BME280;17770;45.966;13.632;2022-09-24T06:51:06;100666.16;;;21.40;46.41
31121;BME280;17770;45.966;13.632;2022-09-24T06:53:32;100668.72;;;21.42;46.36
31121;BME280;17770;45.966;13.632;2022-09-24T06:55:58;100672.16;;;21.42;46.44
31121;BME280;17770;45.966;13.632;2022-09-24T06:58:24;100673.97;;;21.42;46.66
31121;BME280;17770;45.966;13.632;2022-09-24T07:00:51;100672.25;;;21.41;46.30
31121;BME280;17770;45.966;13.632;2022-09-24T07:03:17;100686.22;;;21.41;46.38
31121;BME280;17770;45.966;13.632;2022-09-24T07:05:43;100685.38;;;21.41;46.50
31121;BME280;17770;45.966;13.632;2022-09-24T07:08:09;100694.84;;;21.43;46.62
31121;BME280;17770;45.966;13.632;2022-09-24T07:10:35;100690.41;;;21.44;46.62
31121;BME280;17770;45.966;13.632;2022-09-24T07:13:02;100692.09;;;21.45;46.75
31121;BME280;17770;45.966;13.632;2022-09-24T07:15:28;100692.00;;;21.46;47.11
31121;BME280;17770;45.966;13.632;2022-09-24T07:17:54;100689.28;;;21.48;46.92
31121;BME280;17770;45.966;13.632;2022-09-24T07:20:20;100692.94;;;21.45;46.88
31121;BME280;17770;45.966;13.632;2022-09-24T07:22:46;100689.38;;;21.46;46.56
31121;BME280;17770;45.966;13.632;2022-09-24T07:25:12;100694.84;;;21.43;46.64
31121;BME280;17770;45.966;13.632;2022-09-24T07:27:38;100701.00;;;21.42;46.05
31121;BME280;17770;45.966;13.632;2022-09-24T07:30:04;100696.72;;;21.41;46.32
31121;BME280;17770;45.966;13.632;2022-09-24T07:32:31;100700.28;;;21.40;46.82
31121;BME280;17770;45.966;13.632;2022-09-24T07:34:57;100707.31;;;21.40;46.29
31121;BME280;17770;45.966;13.632;2022-09-24T07:37:23;100712.78;;;21.37;45.72
31121;BME280;17770;45.966;13.632;2022-09-24T07:39:48;100713.72;;;21.36;46.39
31121;BME280;17770;45.966;13.632;2022-09-24T07:42:14;100722.53;;;21.35;46.95
31121;BME280;17770;45.966;13.632;2022-09-24T07:44:40;100719.19;;;21.33;46.25
31121;BME280;17770;45.966;13.632;2022-09-24T07:47:06;100717.50;;;21.32;46.09
31121;BME280;17770;45.966;13.632;2022-09-24T07:49:35;100714.69;;;21.35;47.11
31121;BME280;17770;45.966;13.632;2022-09-24T07:52:01;100716.56;;;21.33;46.62
31121;BME280;17770;45.966;13.632;2022-09-24T07:54:27;100709.53;;;21.33;45.95
31121;BME280;17770;45.966;13.632;2022-09-24T07:56:54;100702.59;;;21.32;46.64
31121;BME280;17770;45.966;13.632;2022-09-24T07:59:20;100704.50;;;21.30;46.14
31121;BME280;17770;45.966;13.632;2022-09-24T08:01:46;100701.88;;;21.30;47.51
31121;BME280;17770;45.966;13.632;2022-09-24T08:04:12;100707.03;;;21.32;47.86
31121;BME280;17770;45.966;13.632;2022-09-24T08:06:38;100701.88;;;21.30;47.86
31121;BME280;17770;45.966;13.632;2022-09-24T08:09:04;100705.31;;;21.31;48.15
31121;BME280;17770;45.966;13.632;2022-09-24T08:11:30;100713.19;;;21.31;47.99
31121;BME280;17770;45.966;13.632;2022-09-24T08:13:56;100701.88;;;21.30;48.14
31121;BME280;17770;45.966;13.632;2022-09-24T08:16:22;100694.81;;;21.31;47.92
31121;BME280;17770;45.966;13.632;2022-09-24T08:18:48;100701.88;;;21.30;47.73
31121;BME280;17770;45.966;13.632;2022-09-24T08:21:14;100698.28;;;21.31;47.40
31121;BME280;17770;45.966;13.632;2022-09-24T08:23:41;100699.03;;;21.33;47.29
31121;BME280;17770;45.966;13.632;2022-09-24T08:26:07;100692.09;;;21.32;47.15
31121;BME280;17770;45.966;13.632;2022-09-24T08:28:33;100690.31;;;21.33;46.51
31121;BME280;17770;45.966;13.632;2022-09-24T08:31:02;100689.47;;;21.32;46.50
31121;BME280;17770;45.966;13.632;2022-09-24T08:33:28;100693.78;;;21.33;46.40
31121;BME280;17770;45.966;13.632;2022-09-24T08:35:59;100697.34;;;21.32;47.33
31121;BME280;17770;45.966;13.632;2022-09-24T08:38:26;100693.06;;;21.31;46.60
31121;BME280;17770;45.966;13.632;2022-09-24T08:40:53;100690.44;;;21.31;45.93
31121;BME280;17770;45.966;13.632;2022-09-24T08:43:34;100694.72;;;21.32;46.15
31121;BME280;17770;45.966;13.632;2022-09-24T08:46:02;100694.72;;;21.32;46.01
31121;BME280;17770;45.966;13.632;2022-09-24T08:48:53;100696.41;;;21.33;46.44
31121;BME280;17770;45.966;13.632;2022-09-24T08:51:40;100686.84;;;21.32;47.61
31121;BME280;17770;45.966;13.632;2022-09-24T08:54:11;100685.81;;;21.35;47.71
31121;BME280;17770;45.966;13.632;2022-09-24T08:56:40;100681.41;;;21.35;48.05
31121;BME280;17770;45.966;13.632;2022-09-24T09:09:02;100694.09;;;21.41;48.40
31121;BME280;17770;45.966;13.632;2022-09-24T09:11:30;100694.94;;;21.42;48.48
31121;BME280;17770;45.966;13.632;2022-09-24T09:13:58;100693.13;;;21.42;48.73
31121;BME280;17770;45.966;13.632;2022-09-24T09:16:26;100697.47;;;21.43;48.60
31121;BME280;17770;45.966;13.632;2022-09-24T09:18:58;100692.22;;;21.43;48.31
31121;BME280;17770;45.966;13.632;2022-09-24T09:21:36;100694.72;;;21.45;48.65
31121;BME280;17770;45.966;13.632;2022-09-24T09:24:11;100695.66;;;21.44;48.47
31121;BME280;17770;45.966;13.632;2022-09-24T09:26:39;100689.47;;;21.45;48.38
31121;BME280;17770;45.966;13.632;2022-09-24T09:29:07;100680.66;;;21.46;48.46
31121;BME280;17770;45.966;13.632;2022-09-24T09:44:41;100690.13;;;21.48;48.33
31121;BME280;17770;45.966;13.632;2022-09-24T09:47:14;100689.28;;;21.48;48.31
31121;BME280;17770;45.966;13.632;2022-09-24T09:49:44;100684.13;;;21.46;48.26
31121;BME280;17770;45.966;13.632;2022-09-24T09:52:17;100679.72;;;21.47;48.78
31121;BME280;17770;45.966;13.632;2022-09-24T09:54:45;100681.41;;;21.48;48.47
31121;BME280;17770;45.966;13.632;2022-09-24T09:57:14;100681.41;;;21.48;48.16
31121;BME280;17770;45.966;13.632;2022-09-24T09:59:46;100678.78;;;21.48;48.50
31121;BME280;17770;45.966;13.632;2022-09-24T10:04:45;100674.16;;;21.51;47.22
31121;BME280;17770;45.966;13.632;2022-09-24T10:07:12;100679.63;;;21.48;46.86
31121;BME280;17770;45.966;13.632;2022-09-24T10:09:39;100679.50;;;21.50;47.16
31121;BME280;17770;45.966;13.632;2022-09-24T10:12:19;100672.56;;;21.49;46.70
31121;BME280;17770;45.966;13.632;2022-09-24T10:14:55;100670.78;;;21.49;46.75
31121;BME280;17770;45.966;13.632;2022-09-24T10:17:21;100657.78;;;21.48;47.03
31121;BME280;17770;45.966;13.632;2022-09-24T10:19:51;100656.09;;;21.47;46.76
31121;BME280;17770;45.966;13.632;2022-09-24T10:22:23;100646.44;;;21.47;46.77
31121;BME280;17770;45.966;13.632;2022-09-24T10:24:51;100658.63;;;21.48;46.61
31121;BME280;17770;45.966;13.632;2022-09-24T10:27:26;100651.78;;;21.46;46.67
31121;BME280;17770;45.966;13.632;2022-09-24T10:29:54;100652.53;;;21.48;46.50
31121;BME280;17770;45.966;13.632;2022-09-24T10:32:39;100656.00;;;21.48;46.81
31121;BME280;17770;45.966;13.632;2022-09-24T10:35:20;100658.63;;;21.48;46.70
31121;BME280;17770;45.966;13.632;2022-09-24T10:38:14;100652.63;;;21.46;46.65
31121;BME280;17770;45.966;13.632;2022-09-24T10:40:38;100656.91;;;21.47;46.63
31121;BME280;17770;45.966;13.632;2022-09-24T10:43:05;100658.72;;;21.47;46.36
31121;BME280;17770;45.966;13.632;2022-09-24T10:48:20;100653.25;;;21.50;46.62
31121;BME280;17770;45.966;13.632;2022-09-24T10:53:46;100650.75;;;21.48;46.68
31121;BME280;17770;45.966;13.632;2022-09-24T11:01:30;100651.44;;;21.50;46.54
31121;BME280;17770;45.966;13.632;2022-09-24T11:11:41;100644.31;;;21.52;46.80
31121;BME280;17770;45.966;13.632;2022-09-24T11:14:23;100641.69;;;21.52;46.85
31121;BME280;17770;45.966;13.632;2022-09-24T11:22:16;100627.63;;;21.53;46.43
31121;BME280;17770;45.966;13.632;2022-09-24T11:30:18;100609.28;;;21.53;46.24
31121;BME280;17770;45.966;13.632;2022-09-24T11:35:44;100611.91;;;21.53;46.14
31121;BME280;17770;45.966;13.632;2022-09-24T11:38:25;100622.41;;;21.53;46.44
31121;BME280;17770;45.966;13.632;2022-09-24T11:44:25;100620.47;;;21.55;46.62
31121;BME280;17770;45.966;13.632;2022-09-24T11:54:20;100625.84;;;21.54;46.79
31121;BME280;17770;45.966;13.632;2022-09-24T11:56:49;100616.19;;;21.54;46.56
31121;BME280;17770;45.966;13.632;2022-09-24T11:59:40;100613.56;;;21.54;46.73
31121;BME280;17770;45.966;13.632;2022-09-24T12:02:09;100619.66;;;21.55;46.54
31121;BME280;17770;45.966;13.632;2022-09-24T12:07:30;100617.84;;;21.55;46.62
31121;BME280;17770;45.966;13.632;2022-09-24T12:10:21;100622.16;;;21.56;46.77
31121;BME280;17770;45.966;13.632;2022-09-24T12:12:44;100615.22;;;21.55;46.64
31121;BME280;17770;45.966;13.632;2022-09-24T12:15:21;100612.59;;;21.55;46.74
31121;BME280;17770;45.966;13.632;2022-09-24T12:18:00;100617.66;;;21.58;46.65
31121;BME280;17770;45.966;13.632;2022-09-24T12:20:28;100621.09;;;21.59;46.90
31121;BME280;17770;45.966;13.632;2022-09-24T12:23:01;100609.66;;;21.60;46.69
31121;BME280;17770;45.966;13.632;2022-09-24T12:25:31;100607.97;;;21.59;46.54
31121;BME280;17770;45.966;13.632;2022-09-24T12:27:58;100601.91;;;21.58;47.05
31121;BME280;17770;45.966;13.632;2022-09-24T12:33:40;100592.97;;;21.61;46.78
31121;BME280;17770;45.966;13.632;2022-09-24T12:36:11;100588.66;;;21.60;46.88
31121;BME280;17770;45.966;13.632;2022-09-24T12:38:44;100586.88;;;21.60;46.72
31121;BME280;17770;45.966;13.632;2022-09-24T12:41:31;100596.44;;;21.61;46.98
31121;BME280;17770;45.966;13.632;2022-09-24T12:46:49;100585.94;;;21.61;46.77
31121;BME280;17770;45.966;13.632;2022-09-24T12:51:51;100591.06;;;21.63;46.66
31121;BME280;17770;45.966;13.632;2022-09-24T12:59:31;100584.25;;;21.60;46.67
31121;BME280;17770;45.966;13.632;2022-09-24T13:02:12;100577.09;;;21.62;47.01
31121;BME280;17770;45.966;13.632;2022-09-24T13:04:42;100573.53;;;21.63;46.99
31121;BME280;17770;45.966;13.632;2022-09-24T13:09:53;100577.09;;;21.62;46.91
31121;BME280;17770;45.966;13.632;2022-09-24T13:12:20;100574.25;;;21.65;47.35
31121;BME280;17770;45.966;13.632;2022-09-24T13:17:15;100573.53;;;21.63;47.04
31121;BME280;17770;45.966;13.632;2022-09-24T13:19:43;100573.44;;;21.65;47.66
31121;BME280;17770;45.966;13.632;2022-09-24T13:22:25;100569.97;;;21.64;47.00
31121;BME280;17770;45.966;13.632;2022-09-24T13:24:52;100568.06;;;21.66;47.21
31121;BME280;17770;45.966;13.632;2022-09-24T13:29:46;100560.69;;;21.71;47.24
31121;BME280;17770;45.966;13.632;2022-09-24T13:32:17;100559.97;;;21.69;47.27
31121;BME280;17770;45.966;13.632;2022-09-24T13:34:44;100562.69;;;21.68;46.98
31121;BME280;17770;45.966;13.632;2022-09-24T13:37:21;100564.47;;;21.67;47.01
31121;BME280;17770;45.966;13.632;2022-09-24T13:39:55;100559.34;;;21.66;47.19
31121;BME280;17770;45.966;13.632;2022-09-24T13:44:55;100557.56;;;21.66;47.13
31121;BME280;17770;45.966;13.632;2022-09-24T13:49:51;100536.44;;;21.68;46.99
31121;BME280;17770;45.966;13.632;2022-09-24T13:52:26;100533.94;;;21.66;47.19
31121;BME280;17770;45.966;13.632;2022-09-24T13:54:54;100536.44;;;21.68;47.04
31121;BME280;17770;45.966;13.632;2022-09-24T13:57:25;100522.47;;;21.67;46.98
31121;BME280;17770;45.966;13.632;2022-09-24T14:00:11;100526.06;;;21.66;46.91
31121;BME280;17770;45.966;13.632;2022-09-24T14:02:39;100525.00;;;21.69;46.81
31121;BME280;17770;45.966;13.632;2022-09-24T14:05:13;100522.38;;;21.69;47.24
31121;BME280;17770;45.966;13.632;2022-09-24T14:07:40;100517.97;;;21.69;46.85
31121;BME280;17770;45.966;13.632;2022-09-24T14:10:11;100518.81;;;21.70;46.97
31121;BME280;17770;45.966;13.632;2022-09-24T14:12:37;100513.56;;;21.70;47.05
31121;BME280;17770;45.966;13.632;2022-09-24T14:15:08;100517.84;;;21.71;46.93
31121;BME280;17770;45.966;13.632;2022-09-24T14:17:34;100516.06;;;21.71;46.91
31121;BME280;17770;45.966;13.632;2022-09-24T14:20:00;100520.47;;;21.71;47.13
31121;BME280;17770;45.966;13.632;2022-09-24T14:22:30;100515.34;;;21.69;47.14
31121;BME280;17770;45.966;13.632;2022-09-24T14:24:57;100516.19;;;21.70;47.05
31121;BME280;17770;45.966;13.632;2022-09-24T14:27:25;100512.72;;;21.69;47.28
31121;BME280;17770;45.966;13.632;2022-09-24T14:29:56;100506.50;;;21.70;47.23
31121;BME280;17770;45.966;13.632;2022-09-24T14:34:56;100511.75;;;21.70;47.04
31121;BME280;17770;45.966;13.632;2022-09-24T14:37:24;100502.09;;;21.71;47.09
31121;BME280;17770;45.966;13.632;2022-09-24T14:39:56;100501.97;;;21.72;47.35
31121;BME280;17770;45.966;13.632;2022-09-24T14:42:29;100496.84;;;21.71;46.99
31121;BME280;17770;45.966;13.632;2022-09-24T14:44:56;100501.25;;;21.70;46.88